Time;durP1;ratioP1;P1;durP2;ratioP2;P2;SDS_P1;SDS_P2;PMS_P1;PMS_P2;Temp;Humidity;BMP_temperature;BMP_pressure;BME280_temperature;BME280_humidity;BME280_pressure;Samples;Min_cycle;Max_cycle;Signal;HPM_P1;HPM_P2
2022/01/02 00:01:09;;;;;;;;;;;;;;;11.79;65.83;100784.25;4357839;32;35755;-78
2022/01/02 00:08:12;;;;;;;;;;;;;;;11.62;66.53;100776.84;4305914;33;35284;-79
2022/01/02 00:28:31;;;;;;;;;;;;;;;11.88;65.10;100767.47;4336568;33;34930;-78
2022/01/02 00:39:53;;;;;;;;;;;;;;;11.71;65.69;100768.06;4236751;33;34054;-78
2022/01/02 00:43:28;;;;;;;;;;;;;;;11.64;65.91;100766.88;4252768;33;34894;-78
2022/01/02 00:46:11;;;;;;;;;;;;;;;;;;;;;
2022/01/02 00:49:31;;;;;;;;;;;;;;;;;;;;;
2022/01/02 00:53:16;;;;;;;;;;;;;;;11.65;65.58;100768.56;4265332;33;34063;-78
2022/01/02 01:00:37;;;;;;;;;;;;;;;11.46;66.41;100773.69;4248413;33;35904;-78
2022/01/02 01:07:30;;;;;;;;;;;;;;;11.56;65.71;100766.63;4244404;33;33966;-78
2022/01/02 01:10:50;;;;;;;;;;;;;;;11.72;65.01;100759.09;4258182;33;34776;-78
2022/01/02 01:17:55;;;;;;;;;;;;;;;11.90;63.98;100770.88;4366066;32;36228;-78
2022/01/02 01:20:59;;;;;;;;;;;;;;;11.83;64.21;100765.19;4337059;33;34087;-79
2022/01/02 02:22:56;;;;;;;;;;;;;;;;;;;;;
2022/01/02 02:26:19;;;;;;;;;;;;;;;10.96;66.84;100736.19;4277518;33;35422;-78
2022/01/02 02:29:57;;;;;;;;;;;;;;;;;;;;;
2022/01/02 02:37:03;;;;;;;;;;;;;;;11.00;67.14;100742.94;4257043;33;35704;-78
2022/01/02 02:40:20;;;;;;;;;;;;;;;;;;;;;
2022/01/02 02:50:15;;;;;;;;;;;;;;;10.93;67.15;100725.78;4300107;33;36518;-78
2022/01/02 03:04:50;;;;;;;;;;;;;;;11.02;66.71;100735.69;4246912;33;35554;-79
2022/01/02 03:08:21;;;;;;;;;;;;;;;11.28;65.62;100733.41;4321989;33;35346;-78
2022/01/02 03:11:08;;;;;;;;;;;;;;;11.26;65.46;100718.56;4328902;33;33649;-79
2022/01/02 03:20:52;;;;;;;;;;;;;;;11.13;65.50;100709.84;4322641;33;35368;-78
2022/01/02 03:28:15;;;;;;;;;;;;;;;10.86;66.29;100700.63;4317625;33;35860;-78
2022/01/02 03:32:12;;;;;;;;;;;;;;;11.08;65.53;100696.09;4313987;33;35948;-79
2022/01/02 03:42:13;;;;;;;;;;;;;;;;;;;;;
2022/01/02 03:53:05;;;;;;;;;;;;;;;11.11;64.88;100679.03;4301320;33;34168;-78
2022/01/02 03:56:28;;;;;;;;;;;;;;;10.94;65.39;100685.72;4294734;33;34846;-79
2022/01/02 04:17:33;;;;;;;;;;;;;;;11.08;64.84;100688.09;4294572;33;35313;-79
2022/01/02 04:49:09;;;;;;;;;;;;;;;10.97;62.20;100695.28;4344895;33;33984;-79
2022/01/02 04:55:21;;;;;;;;;;;;;;;;;;;;;
2022/01/02 04:59:19;;;;;;;;;;;;;;;10.69;62.42;100687.81;4300655;33;35378;-78
2022/01/02 05:19:37;;;;;;;;;;;;;;;10.53;63.53;100676.72;4286446;33;35471;-78
2022/01/02 05:23:11;;;;;;;;;;;;;;;10.27;64.42;100667.28;4273201;33;35918;-79
2022/01/02 06:07:21;;;;;;;;;;;;;;;;;;;;;
2022/01/02 06:14:16;;;;;;;;;;;;;;;;;;;;;
2022/01/02 06:21:13;;;;;;;;;;;;;;;9.24;64.12;100652.34;4329210;33;35396;-78
2022/01/02 06:27:56;;;;;;;;;;;;;;;;;;;;;
2022/01/02 06:31:09;;;;;;;;;;;;;;;9.09;64.52;100645.56;4397702;32;35818;-78
2022/01/02 06:38:22;;;;;;;;;;;;;;;8.78;66.36;100654.06;4398277;32;34892;-78
2022/01/02 06:48:02;;;;;;;;;;;;;;;;;;;;;
2022/01/02 06:58:55;;;;;;;;;;;;;;;;;;;;;
2022/01/02 07:06:18;;;;;;;;;;;;;;;9.05;65.39;100662.66;4354043;32;35748;-78
2022/01/02 07:13:23;;;;;;;;;;;;;;;9.00;64.83;100663.00;4358409;32;34588;-78
2022/01/02 07:24:04;;;;;;;;;;;;;;;8.60;65.68;100679.31;4351428;32;34550;-79
2022/01/02 07:33:55;;;;;;;;;;;;;;;8.93;64.85;100666.22;4392410;32;35254;-79
2022/01/02 07:44:07;;;;;;;;;;;;;;;9.13;64.14;100654.97;4347399;32;36940;-79
2022/01/02 07:48:11;;;;;;;;;;;;;;;9.24;63.89;100660.31;4374879;32;35424;-78
2022/01/02 07:51:32;;;;;;;;;;;;;;;9.38;63.59;100668.09;4374923;32;34923;-79
2022/01/02 07:54:36;;;;;;;;;;;;;;;;;;;;;
2022/01/02 07:57:41;;;;;;;;;;;;;;;9.44;63.73;100660.50;4362512;32;35943;-78
2022/01/02 08:01:52;;;;;;;;;;;;;;;9.52;63.75;100665.22;4357747;32;36163;-78
2022/01/02 08:04:43;;;;;;;;;;;;;;;9.57;64.09;100663.09;4366523;32;33672;-80
2022/01/02 08:08:32;;;;;;;;;;;;;;;9.68;63.94;100657.78;4370985;32;35441;-79
2022/01/02 08:11:22;;;;;;;;;;;;;;;9.74;64.00;100649.38;4359560;32;35805;-82
2022/01/02 08:14:39;;;;;;;;;;;;;;;;;;;;;
2022/01/02 08:18:13;;;;;;;;;;;;;;;;;;;;;
2022/01/02 08:22:06;;;;;;;;;;;;;;;10.03;64.04;100629.38;4386657;32;34813;-81
2022/01/02 08:32:07;;;;;;;;;;;;;;;10.41;64.08;100621.84;4389981;32;34650;-81
2022/01/02 08:39:11;;;;;;;;;;;;;;;10.35;65.52;100624.97;4399410;32;36764;-82
2022/01/02 09:06:45;;;;;;;;;;;;;;;11.54;65.14;100601.53;4361408;32;36797;-84
2022/01/02 09:22:16;;;;;;;;;;;;;;;12.47;63.40;100589.78;4389737;32;36890;-84
2022/01/02 09:25:57;;;;;;;;;;;;;;;12.33;62.78;100587.47;4383833;32;36180;-85
2022/01/02 09:32:54;;;;;;;;;;;;;;;12.84;62.15;100586.28;4384080;32;34443;-84
2022/01/02 09:35:40;;;;;;;;;;;;;;;;;;;;;
2022/01/02 09:38:51;;;;;;;;;;;;;;;13.21;59.94;100595.34;4385714;32;34128;-84
2022/01/02 09:46:42;;;;;;;;;;;;;;;13.89;58.18;100564.78;4381706;32;34849;-84
2022/01/02 09:49:20;;;;;;;;;;;;;;;13.67;58.59;100549.94;4388483;32;35932;-85
2022/01/02 09:57:09;;;;;;;;;;;;;;;14.44;55.51;100528.06;4271309;33;33130;-84
2022/01/02 10:00:53;;;;;;;;;;;;;;;;;;;;;
2022/01/02 10:04:22;;;;;;;;;;;;;;;14.58;54.77;100513.31;4242368;33;34634;-83
2022/01/02 10:21:30;;;;;;;;;;;;;;;14.43;51.89;100513.97;4255038;33;33162;-85
2022/01/02 10:28:33;;;;;;;;;;;;;;;14.99;50.39;100496.59;4198988;34;33510;-84
2022/01/02 10:41:22;;;;;;;;;;;;;;;15.21;49.76;100450.53;4256455;33;34821;-83
2022/01/02 10:44:29;;;;;;;;;;;;;;;;;;;;;
2022/01/02 10:55:30;;;;;;;;;;;;;;;15.12;48.85;100448.81;4229798;33;33087;-86
2022/01/02 11:01:08;;;;;;;;;;;;;;;;;;;;;
2022/01/02 11:21:31;;;;;;;;;;;;;;;15.82;48.40;100401.09;4295862;33;34033;-85
2022/01/02 11:37:47;;;;;;;;;;;;;;;15.97;48.67;100375.28;4356572;32;35558;-83
2022/01/02 11:41:19;;;;;;;;;;;;;;;15.77;49.75;100365.03;4349286;32;34355;-84
2022/01/02 11:48:19;;;;;;;;;;;;;;;15.88;48.48;100353.97;4367316;32;34911;-85
2022/01/02 11:55:04;;;;;;;;;;;;;;;16.19;49.10;100341.59;4383335;32;34426;-83
2022/01/02 11:58:50;;;;;;;;;;;;;;;16.15;47.95;100325.00;4394671;32;33720;-84
2022/01/02 12:01:44;;;;;;;;;;;;;;;;;;;;;
2022/01/02 12:05:25;;;;;;;;;;;;;;;15.22;50.88;100332.41;4402641;32;35622;-84
2022/01/02 12:08:11;;;;;;;;;;;;;;;15.58;49.78;100327.75;4382875;32;33148;-84
2022/01/02 12:11:33;;;;;;;;;;;;;;;15.97;49.95;100326.97;4381332;32;33271;-84
2022/01/02 12:17:25;;;;;;;;;;;;;;;16.01;50.08;100304.19;4378806;32;34224;-86
2022/01/02 12:20:52;;;;;;;;;;;;;;;15.94;50.25;100296.94;4383149;32;35373;-85
2022/01/02 12:42:28;;;;;;;;;;;;;;;15.63;51.57;100267.25;4468397;26;33627;-84
2022/01/02 12:45:01;;;;;;;;;;;;;;;16.04;50.10;100260.91;4420880;32;34258;-82
2022/01/02 12:47:47;;;;;;;;;;;;;;;16.29;50.35;100264.41;4430517;32;33307;-82
2022/01/02 12:50:21;;;;;;;;;;;;;;;16.81;48.43;100255.78;4435516;32;33580;-82
2022/01/02 12:52:50;;;;;;;;;;;;;;;16.98;47.39;100265.47;4428935;32;34595;-82
2022/01/02 12:55:18;;;;;;;;;;;;;;;16.44;48.55;100255.53;4444152;32;34967;-82
2022/01/02 12:57:47;;;;;;;;;;;;;;;17.19;47.81;100254.94;4417167;32;34080;-82
2022/01/02 13:00:30;;;;;;;;;;;;;;;17.24;47.71;100255.28;4418747;32;34116;-81
2022/01/02 13:02:58;;;;;;;;;;;;;;;17.06;46.76;100256.56;4442957;32;34513;-81
2022/01/02 13:05:26;;;;;;;;;;;;;;;16.71;47.92;100255.13;4416932;32;35108;-82
2022/01/02 13:07:59;;;;;;;;;;;;;;;16.24;50.18;100256.03;4416367;32;33110;-82
2022/01/02 13:10:26;;;;;;;;;;;;;;;16.75;48.58;100252.94;4417327;32;32281;-82
2022/01/02 13:12:54;;;;;;;;;;;;;;;17.02;48.04;100249.84;4427323;32;33685;-82
2022/01/02 13:15:21;;;;;;;;;;;;;;;17.48;46.40;100244.44;4410598;32;33116;-82
2022/01/02 13:17:50;;;;;;;;;;;;;;;17.32;46.69;100243.63;4429700;32;33068;-82
2022/01/02 13:20:20;;;;;;;;;;;;;;;16.58;48.82;100245.94;4429382;32;34572;-82
2022/01/02 13:22:52;;;;;;;;;;;;;;;17.24;47.59;100239.16;4429099;32;36582;-82
2022/01/02 13:25:31;;;;;;;;;;;;;;;16.58;49.01;100238.72;4440076;32;34182;-82
2022/01/02 13:28:16;;;;;;;;;;;;;;;17.13;48.10;100233.31;4445795;32;33285;-82
2022/01/02 13:30:48;;;;;;;;;;;;;;;17.14;48.25;100225.09;4420788;32;34855;-82
2022/01/02 13:33:22;;;;;;;;;;;;;;;17.86;46.15;100216.59;4412182;32;36266;-81
2022/01/02 13:35:51;;;;;;;;;;;;;;;18.21;45.25;100214.06;4430396;32;34457;-82
2022/01/02 13:38:19;;;;;;;;;;;;;;;17.91;46.29;100215.03;4411171;32;31481;-82
2022/01/02 13:40:47;;;;;;;;;;;;;;;17.74;46.57;100216.16;4429322;32;33889;-82
2022/01/02 13:43:20;;;;;;;;;;;;;;;17.84;46.18;100206.00;4440765;32;34899;-82
2022/01/02 13:45:49;;;;;;;;;;;;;;;17.55;47.01;100203.19;4434624;32;34671;-82
2022/01/02 13:48:20;;;;;;;;;;;;;;;17.17;47.93;100200.53;4421393;32;32442;-82
2022/01/02 13:50:54;;;;;;;;;;;;;;;17.41;47.39;100194.19;4433244;32;33838;-82
2022/01/02 13:53:23;;;;;;;;;;;;;;;17.34;47.75;100203.97;4432010;32;35669;-82
2022/01/02 13:55:56;;;;;;;;;;;;;;;16.76;49.29;100207.13;4400789;32;34194;-82
2022/01/02 13:58:24;;;;;;;;;;;;;;;16.97;48.80;100199.28;4414688;32;32726;-82
2022/01/02 14:00:54;;;;;;;;;;;;;;;16.87;49.29;100209.41;4429482;32;34737;-82
2022/01/02 14:03:30;;;;;;;;;;;;;;;16.97;49.09;100217.28;4407292;32;34158;-82
2022/01/02 14:05:59;;;;;;;;;;;;;;;16.77;49.78;100218.69;4414833;32;34163;-82
2022/01/02 14:08:28;;;;;;;;;;;;;;;16.89;49.48;100215.44;4420866;32;34099;-81
2022/01/02 14:11:03;;;;;;;;;;;;;;;17.13;49.01;100203.75;4432531;32;32770;-81
2022/01/02 14:13:37;;;;;;;;;;;;;;;16.88;49.41;100194.13;4402729;32;35014;-81
2022/01/02 14:16:05;;;;;;;;;;;;;;;16.67;50.03;100192.03;4435729;32;34422;-81
2022/01/02 14:18:33;;;;;;;;;;;;;;;16.51;50.69;100185.87;4412737;32;31964;-81
2022/01/02 14:21:01;;;;;;;;;;;;;;;16.80;49.91;100173.50;4395581;32;34252;-81
2022/01/02 14:23:28;;;;;;;;;;;;;;;16.63;50.25;100179.13;4419842;32;35131;-82
2022/01/02 14:25:57;;;;;;;;;;;;;;;16.67;50.15;100177.75;4401395;32;34640;-80
2022/01/02 14:28:24;;;;;;;;;;;;;;;16.41;51.07;100178.00;4421758;32;32491;-81
2022/01/02 14:30:52;;;;;;;;;;;;;;;16.70;50.22;100164.00;4399069;32;33977;-81
2022/01/02 14:33:21;;;;;;;;;;;;;;;16.59;50.72;100181.31;4421494;32;35059;-82
2022/01/02 14:35:48;;;;;;;;;;;;;;;16.44;51.15;100176.81;4398537;32;34983;-82
2022/01/02 14:38:16;;;;;;;;;;;;;;;16.50;51.15;100176.97;4416052;32;33368;-81
2022/01/02 14:40:44;;;;;;;;;;;;;;;16.60;50.71;100174.91;4430475;32;34363;-81
2022/01/02 14:43:12;;;;;;;;;;;;;;;16.41;51.11;100172.63;4407764;32;34749;-81
2022/01/02 14:45:41;;;;;;;;;;;;;;;16.34;51.44;100173.47;4428663;32;34805;-81
2022/01/02 14:48:10;;;;;;;;;;;;;;;16.41;51.14;100171.81;4428681;32;32762;-81
2022/01/02 14:50:37;;;;;;;;;;;;;;;16.21;51.71;100159.72;4428564;32;35609;-81
2022/01/02 14:53:05;;;;;;;;;;;;;;;15.97;52.45;100170.50;4428525;32;35969;-81
2022/01/02 14:55:33;;;;;;;;;;;;;;;15.95;52.52;100169.84;4415930;32;33186;-81
2022/01/02 14:58:01;;;;;;;;;;;;;;;15.73;53.07;100163.31;4414574;32;32925;-81
2022/01/02 15:00:28;;;;;;;;;;;;;;;15.37;54.08;100171.81;4415801;32;32577;-81
2022/01/02 15:02:56;;;;;;;;;;;;;;;15.20;54.84;100175.47;4429221;32;34824;-81
2022/01/02 15:05:25;;;;;;;;;;;;;;;15.20;54.65;100172.78;4428892;32;35021;-82
2022/01/02 15:07:53;;;;;;;;;;;;;;;15.03;55.07;100181.78;4403107;32;31666;-81
2022/01/02 15:10:22;;;;;;;;;;;;;;;15.19;54.71;100177.31;4427788;32;34640;-81
2022/01/02 15:12:49;;;;;;;;;;;;;;;15.28;54.35;100189.72;4425323;32;35776;-81
2022/01/02 15:15:18;;;;;;;;;;;;;;;15.25;54.35;100179.34;4415996;32;35017;-81
2022/01/02 15:17:46;;;;;;;;;;;;;;;15.14;54.76;100179.63;4415302;32;32450;-81
2022/01/02 15:20:13;;;;;;;;;;;;;;;14.81;55.32;100171.66;4427243;32;33512;-81
2022/01/02 15:22:43;;;;;;;;;;;;;;;14.78;55.30;100164.81;4427580;32;34852;-81
2022/01/02 15:25:11;;;;;;;;;;;;;;;14.23;56.79;100161.84;4426920;32;34396;-81
2022/01/02 15:27:38;;;;;;;;;;;;;;;14.24;56.59;100163.53;4403136;32;31607;-82
2022/01/02 15:30:06;;;;;;;;;;;;;;;14.32;55.96;100167.06;4416382;32;34778;-81
2022/01/02 15:32:34;;;;;;;;;;;;;;;14.32;55.59;100169.75;4415016;32;34784;-81
2022/01/02 15:35:07;;;;;;;;;;;;;;;14.26;55.54;100169.56;4415142;32;35294;-81
2022/01/02 15:37:36;;;;;;;;;;;;;;;14.29;55.16;100170.09;4427453;32;32481;-82
2022/01/02 15:40:05;;;;;;;;;;;;;;;14.31;54.71;100175.25;4415757;32;33182;-81
2022/01/02 15:42:32;;;;;;;;;;;;;;;14.28;54.81;100173.75;4416287;32;35148;-82
2022/01/02 15:45:01;;;;;;;;;;;;;;;14.24;54.90;100164.34;4420895;32;35702;-82
2022/01/02 15:47:29;;;;;;;;;;;;;;;13.38;58.92;100174.19;4400722;32;33616;-81
2022/01/02 15:49:56;;;;;;;;;;;;;;;13.63;58.38;100163.56;4395744;32;34687;-81
2022/01/02 15:52:24;;;;;;;;;;;;;;;12.86;60.83;100153.59;4430056;32;35911;-81
2022/01/02 15:54:52;;;;;;;;;;;;;;;13.75;58.04;100154.28;4410915;32;34740;-82
2022/01/02 15:57:19;;;;;;;;;;;;;;;13.88;57.17;100153.88;4414482;32;33328;-81
2022/01/02 15:59:47;;;;;;;;;;;;;;;13.88;56.56;100154.72;4406330;32;33680;-82
2022/01/02 16:02:15;;;;;;;;;;;;;;;13.85;56.52;100146.16;4406020;32;34767;-81
2022/01/02 16:04:45;;;;;;;;;;;;;;;13.95;56.17;100158.44;4407358;32;35343;-81
2022/01/02 16:07:13;;;;;;;;;;;;;;;13.77;56.19;100163.00;4403542;32;32994;-81
2022/01/02 16:09:40;;;;;;;;;;;;;;;13.67;56.15;100156.09;4405422;32;32501;-81
2022/01/02 16:12:09;;;;;;;;;;;;;;;13.21;58.62;100138.44;4408555;32;33584;-81
2022/01/02 16:14:36;;;;;;;;;;;;;;;13.80;57.15;100135.97;4420684;32;35268;-80
2022/01/02 16:17:03;;;;;;;;;;;;;;;13.72;56.85;100143.06;4417304;32;33537;-81
2022/01/02 16:19:32;;;;;;;;;;;;;;;13.69;57.87;100136.19;4403761;32;34679;-81
2022/01/02 16:22:00;;;;;;;;;;;;;;;13.18;59.21;100140.59;4417236;32;34839;-82
2022/01/02 16:24:27;;;;;;;;;;;;;;;13.18;58.36;100141.44;4408707;32;35058;-79
2022/01/02 16:26:55;;;;;;;;;;;;;;;13.15;57.62;100146.25;4433254;32;33147;-81
2022/01/02 16:29:27;;;;;;;;;;;;;;;13.23;57.27;100143.66;4401139;32;34132;-82
2022/01/02 16:31:56;;;;;;;;;;;;;;;12.79;59.55;100141.81;4392160;32;35018;-81
2022/01/02 16:34:24;;;;;;;;;;;;;;;13.12;58.88;100133.19;4396921;32;35341;-82
2022/01/02 16:36:53;;;;;;;;;;;;;;;12.94;60.22;100124.34;4417089;32;34314;-81
2022/01/02 16:39:23;;;;;;;;;;;;;;;12.91;60.29;100121.91;4404332;32;37051;-81
2022/01/02 16:41:50;;;;;;;;;;;;;;;12.96;60.50;100114.34;4404402;32;34484;-81
2022/01/02 16:44:21;;;;;;;;;;;;;;;12.77;61.07;100112.59;4410112;32;34762;-82
2022/01/02 16:46:49;;;;;;;;;;;;;;;12.71;61.33;100104.34;4408798;32;32726;-81
2022/01/02 16:49:25;;;;;;;;;;;;;;;12.65;61.53;100103.12;4426246;32;34319;-82
2022/01/02 16:51:54;;;;;;;;;;;;;;;12.59;61.81;100101.06;4425833;32;34466;-81
2022/01/02 16:54:21;;;;;;;;;;;;;;;12.50;62.35;100104.63;4426553;32;35123;-81
2022/01/02 16:56:49;;;;;;;;;;;;;;;12.38;62.53;100099.62;4413180;32;32679;-82
2022/01/02 16:59:18;;;;;;;;;;;;;;;12.18;62.95;100103.38;4400753;32;32861;-81
2022/01/02 17:01:48;;;;;;;;;;;;;;;12.38;62.08;100112.97;4400295;32;33878;-81
2022/01/02 17:04:17;;;;;;;;;;;;;;;12.13;61.51;100130.50;4426048;32;34299;-82
2022/01/02 17:06:46;;;;;;;;;;;;;;;12.27;60.66;100132.66;4404778;32;32375;-81
2022/01/02 17:09:15;;;;;;;;;;;;;;;12.35;60.11;100129.25;4426252;32;34171;-81
2022/01/02 17:11:42;;;;;;;;;;;;;;;12.31;59.75;100123.41;4413927;32;36095;-81
2022/01/02 17:14:10;;;;;;;;;;;;;;;12.37;59.44;100130.81;4426325;32;34388;-81
2022/01/02 17:16:38;;;;;;;;;;;;;;;12.22;59.10;100142.97;4412139;32;33026;-82
2022/01/02 17:19:07;;;;;;;;;;;;;;;12.32;58.76;100134.91;4423735;32;34484;-81
2022/01/02 17:21:35;;;;;;;;;;;;;;;12.24;58.85;100129.44;4410595;32;34997;-80
2022/01/02 17:24:03;;;;;;;;;;;;;;;12.29;58.48;100136.03;4422117;32;33928;-82
2022/01/02 17:26:31;;;;;;;;;;;;;;;12.16;58.38;100140.00;4423803;32;33302;-81
2022/01/02 17:28:59;;;;;;;;;;;;;;;12.28;57.96;100144.19;4418210;32;33454;-81
2022/01/02 17:31:26;;;;;;;;;;;;;;;12.08;58.37;100138.06;4423683;32;35244;-80
2022/01/02 17:33:55;;;;;;;;;;;;;;;12.03;59.21;100121.66;4417615;32;34623;-82
2022/01/02 17:36:24;;;;;;;;;;;;;;;11.68;60.69;100116.16;4414382;32;33376;-81
2022/01/02 17:38:51;;;;;;;;;;;;;;;11.92;59.69;100119.16;4427168;32;33751;-82
2022/01/02 17:41:19;;;;;;;;;;;;;;;12.01;59.15;100112.97;4425792;32;34964;-81
2022/01/02 17:43:48;;;;;;;;;;;;;;;12.03;58.92;100110.16;4427527;32;34493;-81
2022/01/02 17:46:16;;;;;;;;;;;;;;;11.44;61.74;100102.41;4427773;32;33131;-82
2022/01/02 17:48:44;;;;;;;;;;;;;;;11.92;60.86;100094.34;4428657;32;33710;-83
2022/01/02 17:51:11;;;;;;;;;;;;;;;11.93;60.97;100080.84;4428136;32;34626;-83
2022/01/02 17:53:41;;;;;;;;;;;;;;;11.35;63.18;100054.50;4415533;32;34453;-83
2022/01/02 17:56:11;;;;;;;;;;;;;;;10.61;66.29;100033.06;4428940;32;32883;-83
2022/01/02 17:58:39;;;;;;;;;;;;;;;10.48;67.02;100043.16;4415309;32;33609;-82
2022/01/02 18:01:06;;;;;;;;;;;;;;;10.69;66.50;100050.03;4415026;32;35335;-83
2022/01/02 18:03:35;;;;;;;;;;;;;;;10.55;67.34;100041.59;4427469;32;33049;-83
2022/01/02 18:06:08;;;;;;;;;;;;;;;10.68;67.01;100031.56;4418461;32;34148;-82
2022/01/02 18:08:36;;;;;;;;;;;;;;;10.76;66.94;100027.19;4432486;32;33034;-82
2022/01/02 18:11:04;;;;;;;;;;;;;;;10.44;68.36;100034.59;4416804;32;35365;-84
2022/01/02 18:13:38;;;;;;;;;;;;;;;10.65;67.83;100035.31;4417315;32;33803;-83
2022/01/02 18:16:05;;;;;;;;;;;;;;;10.94;66.21;100038.00;4429060;32;33257;-81
2022/01/02 18:18:33;;;;;;;;;;;;;;;11.01;65.62;100033.78;4416516;32;34981;-82
2022/01/02 18:21:01;;;;;;;;;;;;;;;10.85;65.25;100039.66;4415778;32;35364;-83
2022/01/02 18:23:29;;;;;;;;;;;;;;;10.98;64.49;100050.91;4427865;32;34366;-82
2022/01/02 18:25:56;;;;;;;;;;;;;;;11.04;63.89;100060.97;4427751;32;32658;-82
2022/01/02 18:28:24;;;;;;;;;;;;;;;11.04;63.26;100076.09;4414930;32;33856;-82
2022/01/02 18:30:52;;;;;;;;;;;;;;;11.01;63.10;100071.91;4414090;32;34383;-82
2022/01/02 18:33:20;;;;;;;;;;;;;;;10.88;63.23;100054.53;4415063;32;34284;-82
2022/01/02 18:35:48;;;;;;;;;;;;;;;11.00;62.85;100056.91;4402218;32;32535;-83
2022/01/02 18:38:15;;;;;;;;;;;;;;;11.13;62.50;100059.28;4427926;32;33605;-82
2022/01/02 18:40:47;;;;;;;;;;;;;;;11.19;62.05;100050.72;4428199;32;35785;-83
2022/01/02 18:43:16;;;;;;;;;;;;;;;10.95;63.17;100055.66;4428195;32;34654;-83
2022/01/02 18:45:44;;;;;;;;;;;;;;;11.26;61.89;100043.84;4424995;32;32552;-83
2022/01/02 18:48:12;;;;;;;;;;;;;;;11.17;62.17;100042.88;4424950;32;33637;-82
2022/01/02 18:50:39;;;;;;;;;;;;;;;10.85;63.12;100047.66;4412592;32;35912;-83
2022/01/02 18:53:07;;;;;;;;;;;;;;;10.99;62.73;100041.91;4427606;32;34968;-83
2022/01/02 18:55:35;;;;;;;;;;;;;;;11.11;62.21;100039.97;4410926;32;33070;-82
2022/01/02 18:58:03;;;;;;;;;;;;;;;11.09;62.08;100056.06;4405255;32;33733;-83
2022/01/02 19:00:31;;;;;;;;;;;;;;;11.18;61.74;100073.84;4425524;32;35169;-84
2022/01/02 19:02:59;;;;;;;;;;;;;;;11.12;61.90;100076.25;4390416;32;33226;-82
2022/01/02 19:05:30;;;;;;;;;;;;;;;11.14;62.02;100079.59;4425029;32;31789;-83
2022/01/02 19:07:58;;;;;;;;;;;;;;;11.17;62.00;100077.50;4426166;32;33426;-83
2022/01/02 19:10:26;;;;;;;;;;;;;;;11.16;62.17;100073.16;4425752;32;36823;-84
2022/01/02 19:12:54;;;;;;;;;;;;;;;11.10;62.26;100064.88;4426167;32;34922;-82
2022/01/02 19:15:22;;;;;;;;;;;;;;;11.32;61.41;100055.62;4426524;32;33083;-82
2022/01/02 19:17:50;;;;;;;;;;;;;;;11.37;61.06;100040.03;4414174;32;34608;-85
2022/01/02 19:20:18;;;;;;;;;;;;;;;11.16;62.08;100032.38;4426790;32;35302;-83
2022/01/02 19:22:47;;;;;;;;;;;;;;;10.66;63.17;100039.66;4425246;32;34265;-84
2022/01/02 19:25:18;;;;;;;;;;;;;;;10.75;62.89;100038.81;4417680;32;32917;-85
2022/01/02 19:27:50;;;;;;;;;;;;;;;10.64;62.87;100027.47;4417755;32;33957;-83
2022/01/02 19:30:20;;;;;;;;;;;;;;;10.69;62.36;100038.56;4409766;32;36030;-84
2022/01/02 19:32:48;;;;;;;;;;;;;;;10.74;62.15;100023.03;4407822;32;34639;-83
2022/01/02 19:35:16;;;;;;;;;;;;;;;10.68;62.13;100032.38;4428184;32;33038;-84
2022/01/02 19:37:44;;;;;;;;;;;;;;;10.76;61.87;100032.53;4413181;32;34876;-83
2022/01/02 19:40:12;;;;;;;;;;;;;;;10.75;61.89;100041.50;4422930;32;35233;-83
2022/01/02 19:42:40;;;;;;;;;;;;;;;10.80;61.77;100043.72;4414466;32;35772;-82
2022/01/02 19:45:09;;;;;;;;;;;;;;;10.68;61.98;100034.22;4423531;32;32537;-84
2022/01/02 19:47:36;;;;;;;;;;;;;;;10.65;61.96;100030.00;4427414;32;33793;-81
2022/01/02 19:50:07;;;;;;;;;;;;;;;10.47;62.40;100022.84;4427967;32;35921;-83
2022/01/02 19:52:36;;;;;;;;;;;;;;;10.62;62.41;100001.03;4427376;32;35235;-83
2022/01/02 19:55:08;;;;;;;;;;;;;;;10.62;62.90;99993.03;4419941;32;34228;-83
2022/01/02 19:57:39;;;;;;;;;;;;;;;10.21;64.16;99992.44;4427556;32;34613;-82
2022/01/02 20:00:08;;;;;;;;;;;;;;;10.31;63.77;99999.44;4425279;32;34885;-83
2022/01/02 20:02:37;;;;;;;;;;;;;;;10.24;63.51;100021.41;4427600;32;34611;-84
2022/01/02 20:05:05;;;;;;;;;;;;;;;9.85;65.23;100014.25;4427526;32;33107;-84
2022/01/02 20:07:36;;;;;;;;;;;;;;;9.93;64.80;100004.62;4412408;32;33655;-82
2022/01/02 20:10:04;;;;;;;;;;;;;;;10.11;64.24;99994.25;4418389;32;34773;-84
2022/01/02 20:12:32;;;;;;;;;;;;;;;10.30;63.58;99991.63;4427512;32;35846;-83
2022/01/02 20:15:00;;;;;;;;;;;;;;;10.08;64.09;99987.38;4410694;32;32843;-82
2022/01/02 20:17:27;;;;;;;;;;;;;;;9.85;64.50;99977.91;4423542;32;33349;-83
2022/01/02 20:20:00;;;;;;;;;;;;;;;9.97;64.30;99974.16;4421252;32;35875;-83
2022/01/02 20:22:27;;;;;;;;;;;;;;;10.12;64.24;99964.00;4427208;32;34207;-83
2022/01/02 20:24:55;;;;;;;;;;;;;;;10.05;64.30;99982.34;4428255;32;33673;-84
2022/01/02 20:27:22;;;;;;;;;;;;;;;10.16;64.09;99970.72;4427334;32;33623;-83
2022/01/02 20:29:50;;;;;;;;;;;;;;;9.99;64.35;99984.63;4406934;32;33361;-82
2022/01/02 20:32:19;;;;;;;;;;;;;;;9.94;64.48;99981.56;4415479;32;34708;-82
2022/01/02 20:34:46;;;;;;;;;;;;;;;10.03;64.39;99986.91;4427948;32;34405;-81
2022/01/02 20:37:14;;;;;;;;;;;;;;;9.40;66.11;99981.06;4415115;32;33730;-83
2022/01/02 20:39:50;;;;;;;;;;;;;;;9.77;65.20;99977.75;4416410;32;35243;-84
2022/01/02 20:42:36;;;;;;;;;;;;;;;9.83;64.84;99990.47;4429897;32;35374;-83
2022/01/02 20:45:05;;;;;;;;;;;;;;;9.91;64.56;99979.19;4417805;32;33044;-83
2022/01/02 20:47:33;;;;;;;;;;;;;;;9.83;64.43;99965.72;4405157;32;33906;-83
2022/01/02 20:50:00;;;;;;;;;;;;;;;9.84;64.34;99967.41;4423187;32;34431;-83
2022/01/02 20:52:28;;;;;;;;;;;;;;;9.89;63.93;99954.53;4421323;32;34481;-82
2022/01/02 20:54:56;;;;;;;;;;;;;;;10.12;63.15;99942.75;4417361;32;32722;-82
2022/01/02 20:57:23;;;;;;;;;;;;;;;9.75;63.84;99942.47;4420480;32;33985;-82
2022/01/02 20:59:51;;;;;;;;;;;;;;;9.91;63.47;99934.00;4419408;32;36541;-82
2022/01/02 21:02:18;;;;;;;;;;;;;;;9.87;63.41;99940.56;4406837;32;34511;-82
2022/01/02 21:04:49;;;;;;;;;;;;;;;9.91;63.22;99945.47;4420102;32;32520;-82
2022/01/02 21:07:18;;;;;;;;;;;;;;;9.87;63.14;99952.03;4424006;32;34999;-83
2022/01/02 21:09:46;;;;;;;;;;;;;;;9.98;63.05;99937.78;4424577;32;35898;-82
2022/01/02 21:12:14;;;;;;;;;;;;;;;9.97;63.15;99936.97;4424384;32;35398;-83
2022/01/02 21:14:44;;;;;;;;;;;;;;;9.88;63.58;99939.56;4411324;32;33017;-83
2022/01/02 21:17:11;;;;;;;;;;;;;;;9.84;63.48;99935.53;4407897;32;34191;-83
2022/01/02 21:19:42;;;;;;;;;;;;;;;9.82;63.61;99948.13;4429910;32;35486;-83
2022/01/02 21:22:09;;;;;;;;;;;;;;;9.75;63.43;99953.09;4395153;32;34411;-82
2022/01/02 21:24:37;;;;;;;;;;;;;;;9.76;63.24;99946.00;4421155;32;32930;-83
2022/01/02 21:27:04;;;;;;;;;;;;;;;9.78;63.30;99944.88;4410564;32;33947;-83
2022/01/02 21:29:32;;;;;;;;;;;;;;;9.95;62.67;99930.09;4408510;32;34923;-82
2022/01/02 21:32:00;;;;;;;;;;;;;;;9.72;63.12;99929.47;4422386;32;34708;-82
2022/01/02 21:34:28;;;;;;;;;;;;;;;9.67;62.96;99937.03;4433358;32;32730;-82
2022/01/02 21:36:56;;;;;;;;;;;;;;;9.66;62.86;99935.31;4425866;32;34134;-84
2022/01/02 21:39:23;;;;;;;;;;;;;;;9.71;62.35;99938.44;4397271;32;35633;-83
2022/01/02 21:41:51;;;;;;;;;;;;;;;9.52;62.69;99940.16;4417772;32;33683;-83
2022/01/02 21:44:19;;;;;;;;;;;;;;;9.59;62.46;99934.19;4394551;32;32120;-82
2022/01/02 21:46:47;;;;;;;;;;;;;;;9.54;62.40;99928.44;4395598;32;34906;-84
2022/01/02 21:49:14;;;;;;;;;;;;;;;9.44;62.66;99921.44;4409326;32;34952;-83
2022/01/02 21:51:42;;;;;;;;;;;;;;;9.55;62.24;99918.66;4417988;32;34958;-83
2022/01/02 21:54:10;;;;;;;;;;;;;;;9.58;62.09;99919.25;4416816;32;33659;-83
2022/01/02 21:56:40;;;;;;;;;;;;;;;9.33;62.45;99921.50;4417025;32;33958;-83
2022/01/02 21:59:08;;;;;;;;;;;;;;;9.32;62.61;99919.81;4419800;32;35687;-83
2022/01/02 22:01:37;;;;;;;;;;;;;;;9.52;62.57;99900.31;4421396;32;34410;-84
2022/01/02 22:04:05;;;;;;;;;;;;;;;9.45;62.72;99905.34;4415060;32;34108;-83
2022/01/02 22:06:36;;;;;;;;;;;;;;;9.39;62.68;99895.28;4430572;32;33420;-84
2022/01/02 22:09:04;;;;;;;;;;;;;;;9.34;62.83;99896.63;4417038;32;34616;-83
2022/01/02 22:11:33;;;;;;;;;;;;;;;9.31;63.09;99897.75;4420906;32;33934;-83